Data for 08/30/2013

Time Sea-Level Adjusted Pressure Absolute Pressure Temperature Relative Humidity Dew Point   
(mb) (inHg) (mb) (inHg) (C) (F) (%) (C) (F)
00:05 1022 30.18 851 25.13 18.7 65.7 60 11 51.8
00:10 1022 30.18 851 25.13 18.5 65.3 58 10.3 50.5
00:15 1022 30.18 851 25.13 18.4 65.1 59 10.3 50.5
00:20 1022 30.18 851 25.13 18.3 64.9 59 10.3 50.5
00:25 1022 30.18 851 25.13 18.2 64.8 59 10.3 50.6
00:30 1022 30.18 851 25.13 18.2 64.7 60 10.3 50.5
00:35 1022 30.18 851 25.13 18.1 64.5 60 10.2 50.3
00:40 1022 30.18 851 25.13 18 64.3 62 10.7 51.3
00:45 1022 30.18 851 25.13 17.6 63.6 64 10.7 51.2
00:50 1022 30.18 851 25.13 17.5 63.4 64 10.6 51.1
00:55 1022 30.18 851 25.13 17.3 63.2 65 10.7 51.3
01:00 1022 30.18 852 25.16 17.2 63 65 10.6 51.2
01:05 1022 30.18 852 25.16 17.1 62.9 66 10.7 51.3
01:10 1022 30.18 852 25.16 17.1 62.8 65 10.6 51.1
01:15 1022 30.18 852 25.16 17.1 62.9 65 10.5 51
01:20 1023 30.21 852 25.16 17.1 62.8 67 11.1 51.9
01:25 1023 30.21 852 25.16 17.1 62.8 66 10.7 51.2
01:30 1023 30.21 852 25.16 17.1 62.7 66 10.8 51.5
01:35 1023 30.21 852 25.16 16.9 62.4 67 10.8 51.5
01:40 1023 30.21 852 25.16 16.9 62.4 67 10.9 51.6
01:45 1023 30.21 852 25.16 16.9 62.3 69 11.1 52
01:50 1023 30.21 852 25.16 16.6 62 68 10.8 51.4
01:55 1023 30.21 852 25.16 16.4 61.4 68 10.6 51
02:00 1023 30.21 852 25.16 16.2 61.1 69 10.5 50.9
02:05 1023 30.21 852 25.16 16.1 61 68 10.4 50.7
02:10 1023 30.21 852 25.16 15.7 60.3 71 10.6 51.1
02:15 1023 30.21 852 25.16 15.2 59.4 72 10.2 50.4
02:20 1023 30.21 852 25.16 15.1 59.1 70 9.8 49.6
02:25 1023 30.21 852 25.16 14.7 58.4 72 9.7 49.5
02:30 1023 30.21 852 25.16 14.4 57.9 72 9.5 49.1
02:35 1023 30.21 852 25.16 14.3 57.7 73 9.6 49.2
02:40 1023 30.21 852 25.16 14.2 57.6 71 9.2 48.5
02:45 1023 30.21 852 25.16 14.1 57.4 72 9.2 48.5
02:50 1023 30.21 852 25.16 14 57.3 73 9.3 48.7
02:55 1023 30.21 852 25.16 13.7 56.7 74 9.3 48.7
03:00 1022 30.18 852 25.16 13.7 56.7 75 9.5 49
03:05 1022 30.18 852 25.16 13.8 56.8 76 9.7 49.4
03:10 1022 30.18 852 25.16 13.7 56.7 76 9.5 49.1
03:15 1022 30.18 852 25.16 13.9 57.1 74 9.4 48.9
03:20 1022 30.18 852 25.16 14.2 57.5 72 9.2 48.6
03:25 1022 30.18 852 25.16 14.2 57.6 73 9.4 49
03:30 1022 30.18 852 25.16 14.1 57.4 73 9.4 48.9
03:35 1022 30.18 852 25.16 14.1 57.3 73 9.4 48.9
03:40 1022 30.18 852 25.16 14.1 57.4 73 9.4 48.9
03:45 1022 30.18 852 25.16 14 57.1 74 9.4 49
03:50 1022 30.18 852 25.16 13.6 56.4 75 9.3 48.7
03:55 1022 30.18 851 25.13 13.6 56.4 75 9.3 48.7
04:00 1022 30.18 851 25.13 13.7 56.7 75 9.3 48.7
04:05 1022 30.18 852 25.16 14.1 57.5 72 9.3 48.7
04:10 1022 30.18 852 25.16 14.5 58 70 9.2 48.6
04:15 1022 30.18 851 25.13 14.7 58.5 69 9.2 48.5
04:20 1022 30.18 851 25.13 14.6 58.3 69 9.1 48.4
04:25 1022 30.18 851 25.13 14.7 58.4 69 9 48.3
04:30 1022 30.18 851 25.13 14.6 58.3 69 9.1 48.3
04:35 1022 30.18 851 25.13 14.5 58.2 69 9.1 48.3
04:40 1022 30.18 851 25.13 14.5 58.1 69 8.9 48.1
04:45 1022 30.18 851 25.13 14.9 58.7 67 8.8 47.8
04:50 1022 30.18 851 25.13 15.4 59.6 65 8.9 48.1
04:55 1022 30.18 851 25.13 15.3 59.6 66 9.1 48.3
05:00 1022 30.18 851 25.13 15.1 59.1 66 8.8 47.8
05:05 1022 30.18 851 25.13 15.2 59.3 65 8.7 47.7
05:10 1022 30.18 851 25.13 15.1 59.2 66 8.8 47.9
05:15 1022 30.18 851 25.13 14.9 58.8 67 8.8 47.9
05:20 1022 30.18 851 25.13 15 58.9 66 8.7 47.7
05:25 1022 30.18 851 25.13 15 59 65 8.6 47.5
05:30 1022 30.18 851 25.13 14.9 58.9 66 8.8 47.8
05:35 1022 30.18 851 25.13 14.6 58.2 68 8.8 47.9
05:40 1022 30.18 851 25.13 14.4 58 68 8.7 47.6
05:45 1022 30.18 851 25.13 14.3 57.7 69 8.7 47.7
05:50 1022 30.18 852 25.16 14.2 57.5 67 8.3 47
05:55 1022 30.18 852 25.16 14.6 58.3 66 8.4 47.1
06:00 1022 30.18 852 25.16 14.8 58.6 66 8.6 47.5
06:05 1022 30.18 852 25.16 14.8 58.7 66 8.6 47.4
06:10 1022 30.18 852 25.16 14.8 58.6 66 8.6 47.4
06:15 1022 30.18 852 25.16 14.9 58.9 66 8.7 47.6
06:20 1022 30.18 852 25.16 14.8 58.7 66 8.7 47.6
06:25 1022 30.18 852 25.16 14.5 58.2 68 8.7 47.7
06:30 1022 30.18 852 25.16 14.1 57.3 69 8.4 47.2
06:35 1022 30.18 852 25.16 13.8 56.8 69 8.2 46.8
06:40 1022 30.18 852 25.16 13.8 56.9 67 7.9 46.2
06:45 1022 30.18 852 25.16 14.6 58.3 62 7.5 45.6
06:50 1022 30.18 852 25.16 15.4 59.8 61 8.1 46.6
06:55 1022 30.18 852 25.16 15.8 60.5 61 8.5 47.2
07:00 1023 30.21 852 25.16 16.1 61 61 8.8 47.8
07:05 1022 30.18 852 25.16 16.1 61 62 9 48.2
07:10 1022 30.18 852 25.16 16.3 61.3 61 8.8 47.9
07:15 1023 30.21 852 25.16 16.4 61.6 60 8.7 47.7
07:20 1023 30.21 852 25.16 17.1 62.7 58 8.9 47.9
07:25 1023 30.21 852 25.16 17.5 63.4 55 8.4 47.2
07:30 1023 30.21 852 25.16 17.6 63.7 57 9 48.3
07:35 1023 30.21 852 25.16 18.1 64.6 56 9.3 48.7
07:40 1023 30.21 852 25.16 18.6 65.4 55 9.4 49
07:45 1023 30.21 852 25.16 18.7 65.7 54 9.4 48.9
07:50 1023 30.21 852 25.16 19.1 66.3 52 9.1 48.4
07:55 1022 30.18 852 25.16 19.2 66.5 53 9.6 49.3
08:00 1022 30.18 852 25.16 19.5 67.1 50 8.9 47.9
08:05 1023 30.21 852 25.16 20.2 68.3 47 8.8 47.8
08:10 1022 30.18 852 25.16 20.7 69.2 43 7.9 46.2
08:15 1023 30.21 852 25.16 21 69.9 43 8.3 46.9
08:20 1023 30.21 852 25.16 21.4 70.5 43 8.3 47
08:25 1022 30.18 852 25.16 21.5 70.6 44 9 48.2
08:30 1022 30.18 852 25.16 21.2 70.2 46 9.3 48.7
08:35 1022 30.18 852 25.16 21.5 70.6 44 9 48.2
08:40 1023 30.21 852 25.16 21.8 71.3 46 9.8 49.6
08:45 1023 30.21 852 25.16 21.8 71.2 46 9.7 49.5
08:50 1023 30.21 852 25.16 21.7 71.1 44 9.2 48.6
08:55 1023 30.21 852 25.16 22.3 72.1 43 9.3 48.7
09:00 1023 30.21 852 25.16 22.6 72.6 42 9.1 48.4
09:05 1022 30.18 852 25.16 22.7 72.8 46 10.7 51.3
09:10 1022 30.18 852 25.16 22.7 72.9 43 9.8 49.7
09:15 1022 30.18 852 25.16 23.1 73.6 42 9.6 49.3
09:20 1022 30.18 852 25.16 23.4 74 43 10.4 50.7
09:25 1022 30.18 852 25.16 23.6 74.5 40 9.5 49.1
09:30 1022 30.18 852 25.16 23.6 74.5 41 9.9 49.8
09:35 1022 30.18 852 25.16 23.2 73.7 43 10 50
09:40 1022 30.18 852 25.16 23.9 75 42 10.2 50.4
09:45 1022 30.18 852 25.16 24 75.2 41 10.2 50.4
09:50 1022 30.18 852 25.16 24 75.2 41 10.3 50.6
09:55 1022 30.18 852 25.16 23.4 74.1 44 10.6 51.1
10:00 1022 30.18 852 25.16 23.4 74 43 10.1 50.2
10:05 1022 30.18 852 25.16 23.6 74.5 42 10.3 50.5
10:10 1022 30.18 852 25.16 24.9 76.8 39 10.2 50.3
10:15 1022 30.18 851 25.13 24.8 76.6 41 10.8 51.4
10:20 1022 30.18 851 25.13 25.1 77.1 39 10.4 50.7
10:25 1022 30.18 851 25.13 25.4 77.7 38 10.2 50.4
10:30 1022 30.18 851 25.13 24.7 76.5 40 10.6 51.1
10:35 1022 30.18 851 25.13 24.6 76.2 39 10 50
10:40 1022 30.18 851 25.13 24.9 76.9 37 9.5 49
10:45 1022 30.18 851 25.13 25.3 77.6 37 9.8 49.6
10:50 1022 30.18 851 25.13 25.3 77.5 36 9.3 48.7
10:55 1022 30.18 851 25.13 25.4 77.8 35 9.3 48.7
11:00 1022 30.18 851 25.13 24.9 76.8 36 9.1 48.3
11:05 1022 30.18 851 25.13 25 77 36 9.2 48.5
11:10 1022 30.18 851 25.13 25.2 77.4 37 9.8 49.6
11:15 1022 30.18 851 25.13 25.3 77.6 35 8.8 47.9
11:20 1022 30.18 851 25.13 25.9 78.5 34 9 48.2
11:25 1022 30.18 851 25.13 26.5 79.7 32 8.9 48
11:30 1022 30.18 851 25.13 26.6 79.9 32 8.9 48
11:35 1022 30.18 851 25.13 27.2 81 30 8.3 46.9
11:40 1022 30.18 851 25.13 26.8 80.2 31 8.5 47.4
11:45 1022 30.18 851 25.13 27.2 81 29 7.7 45.9
11:50 1022 30.18 851 25.13 27.9 82.2 28 8 46.4
11:55 1021 30.15 851 25.13 28 82.5 26 7.2 45
12:00 1021 30.15 850 25.1 28.1 82.5 26 7.1 44.7
12:05 1021 30.15 850 25.1 28.3 82.9 27 7.8 46
12:10 1021 30.15 850 25.1 28.2 82.8 23 5.4 41.7
12:15 1021 30.15 850 25.1 29 84.2 22 5.7 42.3
12:20 1021 30.15 850 25.1 28.9 84.1 23 6.2 43.2
12:25 1021 30.15 850 25.1 29.4 84.9 23 6.4 43.5
12:30 1021 30.15 850 25.1 29.6 85.3 23 6.7 44.1
12:35 1021 30.15 850 25.1 29.5 85.1 22 6.1 43
12:40 1021 30.15 850 25.1 29.7 85.4 19 4.3 39.7
12:45 1021 30.15 850 25.1 30 86 18 3.4 38.1
12:50 1020 30.12 850 25.1 29.9 85.9 18 3.7 38.6
12:55 1020 30.12 850 25.1 30 86.1 19 4 39.3
13:00 1020 30.12 849 25.07 30.2 86.3 20 5.2 41.4
13:05 1020 30.12 849 25.07 30.1 86.2 16 2.3 36.1
13:10 1020 30.12 849 25.07 30.2 86.4 17 2.5 36.6
13:15 1020 30.12 849 25.07 30.1 86.2 16 2.3 36.1
13:20 1020 30.12 849 25.07 30.2 86.4 17 3.1 37.5
13:25 1020 30.12 849 25.07 30.2 86.3 17 2.7 36.8
13:30 1020 30.12 849 25.07 30.5 86.8 14 0.8 33.4
13:35 1020 30.12 849 25.07 30.5 86.9 15 1.6 34.9
13:40 1020 30.12 849 25.07 30.2 86.4 15 1.4 34.5
13:45 1020 30.12 849 25.07 30.4 86.6 15 1 33.8
13:50 1020 30.12 849 25.07 30.1 86.1 15 0.8 33.5
13:55 1020 30.12 849 25.07 29.9 85.9 15 0.9 33.6
14:00 1020 30.12 849 25.07 30.2 86.4 15 1 33.7
14:05 1020 30.12 849 25.07 30.4 86.6 15 0.9 33.7
14:10 1020 30.12 849 25.07 30.3 86.5 15 1.4 34.4
14:15 1019 30.09 849 25.07 30.2 86.4 15 1.2 34.2
14:20 1019 30.09 849 25.07 30.5 86.9 15 1.1 33.9
14:25 1019 30.09 849 25.07 30.2 86.3 15 1.1 34
14:30 1019 30.09 848 25.04 30.1 86.2 14 0.5 32.8
14:35 1019 30.09 848 25.04 30.2 86.3 17 2.7 36.9
14:40 1019 30.09 848 25.04 30.6 87 15 1.2 34.1
14:45 1019 30.09 848 25.04 30.7 87.3 15 1.3 34.4
14:50 1019 30.09 848 25.04 30.6 87.2 15 1.6 34.9
14:55 1019 30.09 848 25.04 30.4 86.8 16 1.7 35.1
15:00 1019 30.09 848 25.04 30.4 86.7 15 1.1 34
15:05 1019 30.09 848 25.04 30.6 87 14 0.8 33.4
15:10 1019 30.09 848 25.04 30.5 86.9 15 1.3 34.3
15:15 1019 30.09 848 25.04 30.4 86.6 15 0.8 33.5
15:20 1019 30.09 848 25.04 30.4 86.8 15 1.1 34
15:25 1019 30.09 848 25.04 30.7 87.2 14 0.8 33.4
15:30 1019 30.09 848 25.04 31.1 87.9 14 0.9 33.7
15:35 1019 30.09 848 25.04 30.8 87.4 14 1 33.9
15:40 1019 30.09 848 25.04 30.2 86.4 14 0.4 32.6
15:45 1019 30.09 848 25.04 30.1 86.3 14 0 32
15:50 1019 30.09 848 25.04 29.7 85.5 14 -0.4 31.3
15:55 1019 30.09 848 25.04 29.9 85.8 14 -0.3 31.5
16:00 1019 30.09 848 25.04 29.8 85.6 14 0.2 32.3
16:05 1019 30.09 848 25.04 30 85.9 13 -0.8 30.5
16:10 1019 30.09 848 25.04 30.1 86.3 14 -0.3 31.5
16:15 1019 30.09 848 25.04 30.6 87 13 -0.9 30.5
16:20 1019 30.09 848 25.04 30.7 87.2 13 -0.5 31.2
16:25 1019 30.09 848 25.04 30.5 86.8 13 -0.6 30.9
16:30 1019 30.09 848 25.04 30.3 86.5 13 -0.7 30.8
16:35 1019 30.09 848 25.04 30.7 87.2 14 0.4 32.8
16:40 1018 30.06 848 25.04 30.2 86.3 13 -0.7 30.8
16:45 1018 30.06 848 25.04 30 86 13 -0.8 30.6
16:50 1018 30.06 848 25.04 30.1 86.2 13 -0.6 30.9
16:55 1018 30.06 848 25.04 30.2 86.3 13 -0.7 30.8
17:00 1018 30.06 847 25.01 30 86 14 0.2 32.3
17:05 1018 30.06 847 25.01 30.1 86.1 14 -0.3 31.5
17:10 1018 30.06 847 25.01 30 86 13 -0.6 31
17:15 1018 30.06 847 25.01 30.2 86.4 14 0 32.1
17:20 1018 30.06 848 25.04 30.3 86.6 13 -0.6 30.9
17:25 1018 30.06 848 25.04 30.3 86.6 13 -0.5 31.2
17:30 1018 30.06 847 25.01 30.1 86.2 15 0.6 33.2
17:35 1018 30.06 847 25.01 30 86 15 0.7 33.2
17:40 1018 30.06 847 25.01 29.8 85.7 15 0.9 33.6
17:45 1018 30.06 847 25.01 29.7 85.4 15 0.8 33.5
17:50 1018 30.06 847 25.01 29.5 85.1 16 1.5 34.7
17:55 1018 30.06 847 25.01 29.3 84.8 16 0.8 33.5
18:00 1018 30.06 847 25.01 29 84.1 17 1.6 34.9
18:05 1018 30.06 847 25.01 28.8 83.8 17 1.7 35.1
18:10 1018 30.06 847 25.01 28.6 83.5 19 3.1 37.7
18:15 1018 30.06 847 25.01 28.3 82.9 18 2 35.6
18:20 1018 30.06 847 25.01 28.1 82.5 19 3 37.3
18:25 1018 30.06 847 25.01 27.8 82.1 20 3 37.5
18:30 1018 30.06 847 25.01 27.6 81.7 23 5 41
18:35 1018 30.06 847 25.01 27.4 81.2 20 3 37.4
18:40 1018 30.06 847 25.01 27.2 80.9 21 3.2 37.7
18:45 1018 30.06 847 25.01 27.1 80.7 21 3.2 37.8
18:50 1018 30.06 847 25.01 26.9 80.4 22 3.9 39.1
18:55 1018 30.06 847 25.01 26.8 80.2 22 3.3 37.9
19:00 1018 30.06 848 25.04 26.5 79.6 24 4.3 39.8
19:05 1018 30.06 848 25.04 25.7 78.3 26 5 41
19:10 1018 30.06 848 25.04 24.9 76.9 28 5.2 41.3
19:15 1018 30.06 848 25.04 24.8 76.6 26 4.1 39.4
19:20 1018 30.06 848 25.04 24.8 76.6 26 4.3 39.8
19:25 1019 30.09 848 25.04 24.7 76.4 26 4.4 39.9
19:30 1019 30.09 848 25.04 24.3 75.7 27 4.6 40.2
19:35 1019 30.09 848 25.04 24 75.2 27 4.1 39.4
19:40 1019 30.09 848 25.04 24.2 75.5 27 4.2 39.5
19:45 1019 30.09 848 25.04 24.2 75.5 27 4.3 39.8
19:50 1019 30.09 848 25.04 24.2 75.5 26 3.8 38.8
19:55 1019 30.09 848 25.04 24.1 75.4 27 4.1 39.4
20:00 1019 30.09 848 25.04 23.9 74.9 28 4.6 40.2
20:05 1019 30.09 848 25.04 23.5 74.4 29 4.5 40
20:10 1019 30.09 848 25.04 23.3 73.9 29 4.5 40
20:15 1019 30.09 848 25.04 23 73.4 30 4.6 40.4
20:20 1019 30.09 849 25.07 22.6 72.7 31 5 41.1
20:25 1019 30.09 849 25.07 21.7 71.1 38 6.9 44.4
20:30 1020 30.12 849 25.07 20.4 68.6 36 5.1 41.2
20:35 1020 30.12 849 25.07 20.7 69.3 33 4.1 39.4
20:40 1020 30.12 849 25.07 21 69.8 35 5.2 41.3
20:45 1020 30.12 849 25.07 20.8 69.5 34 4.6 40.2
20:50 1020 30.12 849 25.07 21 69.8 32 4 39.2
20:55 1020 30.12 849 25.07 21.7 71 29 3.1 37.6
21:00 1020 30.12 849 25.07 22.4 72.3 28 3.4 38.1
21:05 1020 30.12 849 25.07 22.5 72.6 28 3.6 38.4
21:10 1020 30.12 849 25.07 22.4 72.3 29 3.7 38.7
21:15 1020 30.12 849 25.07 22.2 72 29 3.6 38.5
21:20 1020 30.12 849 25.07 22.2 71.9 29 3.6 38.5
21:25 1020 30.12 849 25.07 22 71.5 29 3.5 38.2
21:30 1020 30.12 849 25.07 21.9 71.4 29 3.3 38
21:35 1020 30.12 849 25.07 22 71.6 29 3.2 37.7
21:40 1020 30.12 849 25.07 21.9 71.4 29 3.4 38.1
21:45 1020 30.12 849 25.07 21.6 70.8 30 3.4 38.1
21:50 1020 30.12 849 25.07 21.4 70.5 31 3.6 38.4
21:55 1020 30.12 850 25.1 21.4 70.4 30 3.5 38.3
22:00 1020 30.12 850 25.1 21.2 70.1 31 3.4 38.1
22:05 1020 30.12 850 25.1 21.1 70 30 3.2 37.8
22:10 1021 30.15 850 25.1 21.2 70.2 30 2.9 37.3
22:15 1021 30.15 850 25.1 21.2 70.2 31 3.5 38.3
22:20 1021 30.15 850 25.1 20.8 69.5 32 3.6 38.5
22:25 1021 30.15 850 25.1 20.6 69 32 3.5 38.4
22:30 1021 30.15 850 25.1 20.2 68.3 35 4.3 39.7
22:35 1021 30.15 850 25.1 19.2 66.6 38 4.6 40.3
22:40 1021 30.15 850 25.1 18.7 65.7 38 4.3 39.8
22:45 1021 30.15 850 25.1 18.5 65.2 39 4.4 39.9
22:50 1021 30.15 850 25.1 18.3 65 39 4.4 40
22:55 1021 30.15 850 25.1 18.1 64.6 40 4.4 40
23:00 1021 30.15 850 25.1 17.9 64.3 40 4.4 40
23:05 1021 30.15 851 25.13 18 64.4 40 4.4 40
23:10 1021 30.15 851 25.13 18.2 64.8 39 4.2 39.6
23:15 1021 30.15 851 25.13 18.6 65.5 37 3.9 39
23:20 1021 30.15 851 25.13 18.9 66 37 4 39.2
23:25 1022 30.18 851 25.13 18.5 65.4 40 4.8 40.7
23:30 1022 30.18 851 25.13 18.1 64.5 41 4.6 40.3
23:35 1022 30.18 851 25.13 17.9 64.2 41 4.7 40.4
23:40 1022 30.18 851 25.13 17.6 63.7 41 4.4 40
23:45 1022 30.18 851 25.13 17.9 64.3 40 4.4 39.8
23:50 1022 30.18 851 25.13 18 64.4 40 4.4 39.8
23:55 1022 30.18 851 25.13 18.2 64.8 38 3.8 38.8
24:00 1022 30.18 851 25.13 18.3 65 39 4.4 39.9